Relevés horaires Semmerzake (Belgique)


Relevés horaires à Semmerzake - Vendredi 01 Janv. 2021
Heure UTC1 Température [°C] Vent [km/h] Hum. [%] Pres.4 [hPa] Visi. [Km] Nébu. [octa] Préc.5 [mm] Cond.
2m. Res. Ros. Dir.2 Vit. Moy. Raf.3
23:00 1.2 1.2 -0.3 SO 3.7 -- 5.6 90 1012.8(0.8/3h) 15 -- -- Il y a une bruine faible et continue à la station au moment de l'observation
22:00 1.0 1.0 -0.6 NNO 1.9 -- 7.4 89 1012.7(1.2/3h) 9 -- -- --
21:00 1.1 1.1 -0.7 SO 3.7 -- 7.4 88 1012.3(1.5/3h) 10 -- -- --
20:00 1.0 -0.7 -0.6 SO 5.6 -- 7.4 89 1012.1(1.2/3h) 9 -- -- --
19:00 0.8 0.8 -0.4 OSO 3.7 -- 7.4 92 1011.5(1.3/3h) 7 -- -- --
18:00 1.8 1.8 0.2 OSO 3.7 -- 9.3 89 1010.7(0.7/3h) 9 -- -- --
17:00 2.3 2.3 0.3 SO 3.7 -- 5.6 87 1010.7(1.1/3h) 12 -- -- --
16:00 3.2 3.2 0.7 NNO 3.7 -- 5.6 84 1010.1(0.3/3h) 12 -- -- --
15:00 4.1 4.1 1.2 O 3.7 -- 9.3 81 1010(-0.1/3h) 17 -- -- --
14:00 4.7 4.7 1.3 O 3.7 -- 9.3 79 1009.7(-0.6/3h) 18 -- -- --
13:00 5.4 5.4 1.4 O 3.7 -- 7.4 75 1009.8(0.0/3h) 19 -- -- --
12:00 3.6 3.6 1.6 NNO 1.9 -- 5.6 87 1010.2(1.2/3h) 11 -- -- --
11:00 2.0 2.0 0.8 SO 3.7 -- 5.6 92 1010.3(1.6/3h) 10 -- -- --
10:00 1.0 1.0 0.2 NNO 1.9 -- 5.6 94 1010.1(1.3/3h) 7 -- -- --
09:00 1.1 1.1 0.4 NNO 1.9 -- 3.7 95 1009(0.9/3h) 7 -- -- --
08:00 1.3 1.3 0.9 NNO 1.9 -- 3.7 97 1008.8(0.9/3h) 6 -- -- --
07:00 1.5 1.5 0.9 NNO 1.9 -- 3.7 96 1008.5(1.1/3h) 7 -- -- --
06:00 1.5 1.5 0.9 NNO 1.9 -- 5.6 96 1008(0.5/3h) 6 -- -- NA
05:00 1.3 1.3 0.9 NNO 1.9 -- 3.7 97 1007.8(0.3/3h) 8 -- -- NA
04:00 1.2 1.2 0.8 NNO 1.9 -- 1.9 97 1007.3(0.0/3h) 7 -- -- --
03:00 1.5 1.5 1.0 NNO 1.9 -- 5.6 96 1007.3(0.0/3h) 10 -- -- --
02:00 1.8 1.8 1.3 NNO 1.9 -- 3.7 96 1007.5(1.0/3h) 9 -- -- --
01:00 1.7 1.7 1.2 NNO 1.9 -- 1.9 96 1007.2(1.2/3h) 9 -- -- --
00:00 1.7 1.7 1.4 NNO 1.9 -- 5.6 98 1007.3(1.5/3h) 10 -- -- NA

1 Coordinated Universal Time. Actuellement il est 16:00 locale et 15:00 UTC.

2 Le vent souffle depuis la direction indiquée vers la direction oposée.

3 Les rafales max. sont disponible 40 min après l'heure du relevé.

4 Pour les stations d'altitude (plus de 600m) le géopotentiel du niveau le plus proche de la pression obligatoire est indiqué.

5 Les stations disposant d'un diffuseur peuvent indiquer "trace". Cela signifie que des précipitations ont touchés le sol mais que la quantité est inférieure à 0.1 mm.

Récapitulatif de la journée
Température [°C] Vent [km/h] Ensoleillement4 [h] Precipitations totale5 [mm] Pression [Hpa]
Min1 Max.2 Moy.3 Max. Min Max.
0.6 5.5 0 9.3 0 h 0 min 0 1007.2 1012.8

1 Température minimale relevée entre 18:00 UTC la veille et 18:00 UTC le jour donné.

2 Température maximale relevée entre 06:00 UTC le jour donné et 06:00 UTC le lendemain.

3 Vent moyen de la journée basé sur les relevés horaires.

4 Ensoleillement en heures relevé entre 06:00 UTC la veille et 06:00 UTC le jour donné.

5 Précipitations totales tombées entre 06:00 UTC la jour donné et 06:00 UTC le lendemain.

Graphiques horaires